createdAt,value
2018-05-21T00:01:00.367Z,76.32
2018-05-21T00:03:28.984Z,75.89
2018-05-21T00:05:57.518Z,76.97
2018-05-21T00:08:26.053Z,76.95
2018-05-21T00:10:54.683Z,79.63
2018-05-21T00:13:23.208Z,79.28
2018-05-21T00:15:51.742Z,78.64
2018-05-21T00:18:20.269Z,79.37
2018-05-21T00:20:48.801Z,78.50
2018-05-21T00:23:17.339Z,78.76
2018-05-21T00:25:45.848Z,78.10
2018-05-21T00:28:14.384Z,79.23
2018-05-21T00:30:42.913Z,79.25
2018-05-21T00:33:11.441Z,79.70
2018-05-21T00:35:40.173Z,79.89
2018-05-21T00:38:08.701Z,79.08
2018-05-21T00:40:37.229Z,81.44
2018-05-21T00:43:05.758Z,81.91
2018-05-21T00:45:34.319Z,80.74
2018-05-21T00:48:02.834Z,81.29
2018-05-21T00:50:31.481Z,81.18
2018-05-21T00:53:00.004Z,82.21
2018-05-21T00:55:37.456Z,82.99
2018-05-21T00:58:06.138Z,83.12
2018-05-21T01:00:34.656Z,83.84
2018-05-21T01:03:03.197Z,82.52
2018-05-21T01:05:31.762Z,82.39
2018-05-21T01:08:00.322Z,82.71
2018-05-21T01:10:28.879Z,82.79
2018-05-21T01:12:57.421Z,82.96
2018-05-21T01:15:25.963Z,82.51
2018-05-21T01:17:54.489Z,82.58
2018-05-21T01:20:23.108Z,82.40
2018-05-21T01:22:51.630Z,82.23
2018-05-21T01:25:20.205Z,82.91
2018-05-21T01:27:48.692Z,83.07
2018-05-21T01:30:17.227Z,82.41
2018-05-21T01:32:45.791Z,82.43
2018-05-21T01:35:14.322Z,82.42
2018-05-21T01:37:42.842Z,83.34
2018-05-21T01:40:11.373Z,83.15
2018-05-21T01:42:39.899Z,83.62
2018-05-21T01:45:09.629Z,87.10
2018-05-21T01:47:38.163Z,85.12
2018-05-21T01:50:06.689Z,85.08
2018-05-21T01:52:35.336Z,86.52
2018-05-21T01:55:03.856Z,86.99
2018-05-21T01:57:32.368Z,87.30
2018-05-21T02:00:00.949Z,86.51
2018-05-21T02:02:29.475Z,88.00
2018-05-21T02:04:57.984Z,87.00
2018-05-21T02:07:26.656Z,88.33
2018-05-21T02:09:55.174Z,87.82
2018-05-21T02:12:23.696Z,86.90
2018-05-21T02:14:52.288Z,87.51
2018-05-21T02:17:20.808Z,88.46
2018-05-21T02:19:49.324Z,89.58
2018-05-21T02:22:17.842Z,88.84
2018-05-21T02:24:46.362Z,88.15
2018-05-21T02:27:14.898Z,88.79
2018-05-21T02:29:43.411Z,89.15
2018-05-21T02:32:11.940Z,89.61
2018-05-21T02:34:40.470Z,88.89
2018-05-21T02:37:08.982Z,89.46
2018-05-21T02:39:37.841Z,88.78
2018-05-21T02:42:06.365Z,89.08
2018-05-21T02:44:34.888Z,88.48
2018-05-21T02:47:03.495Z,88.65
2018-05-21T02:49:32.031Z,88.85
2018-05-21T02:52:00.573Z,90.81
2018-05-21T02:54:29.193Z,90.51
2018-05-21T02:56:57.700Z,90.68
2018-05-21T02:59:26.224Z,92.00
2018-05-21T03:01:54.770Z,91.27
2018-05-21T03:04:23.285Z,91.77
2018-05-21T03:06:51.807Z,92.05
2018-05-21T03:09:20.433Z,90.83
2018-05-21T03:11:48.956Z,90.53
2018-05-21T03:14:17.469Z,92.90
2018-05-21T03:16:46.008Z,92.13
2018-05-21T03:19:14.532Z,91.65
2018-05-21T03:21:43.047Z,92.10
2018-05-21T03:24:11.841Z,96.66
2018-05-21T03:26:40.348Z,95.64
2018-05-21T03:29:08.878Z,96.36
2018-05-21T03:31:37.492Z,97.49
2018-05-21T03:34:06.054Z,96.54
2018-05-21T03:36:34.572Z,95.83
2018-05-21T03:39:03.084Z,94.85
2018-05-21T03:41:31.595Z,93.65
2018-05-21T03:44:00.130Z,92.98
2018-05-21T03:46:28.642Z,92.75
2018-05-21T03:48:57.164Z,92.38
2018-05-21T03:51:25.717Z,92.11
2018-05-21T03:53:54.243Z,92.07
2018-05-21T03:56:22.764Z,92.12
2018-05-21T03:59:02.985Z,92.27
2018-05-21T04:04:49.565Z,91.89
2018-05-21T04:07:18.264Z,92.44
2018-05-21T04:09:46.793Z,95.59
2018-05-21T04:12:16.294Z,94.32
2018-05-21T04:14:45.193Z,95.00
2018-05-21T04:17:13.713Z,94.32
2018-05-21T04:19:42.217Z,93.89
2018-05-21T04:22:10.757Z,93.29
2018-05-21T04:24:39.269Z,93.23
2018-05-21T04:27:08.499Z,94.25
2018-05-21T04:29:37.024Z,93.80
2018-05-21T04:32:05.562Z,94.01
2018-05-21T04:34:34.107Z,93.21
2018-05-21T04:37:02.613Z,94.04
2018-05-21T04:39:31.120Z,94.44
2018-05-21T04:41:59.641Z,93.33
2018-05-21T04:44:28.921Z,92.82
2018-05-21T04:46:57.515Z,94.81
2018-05-21T04:49:26.552Z,95.83
2018-05-21T04:51:55.061Z,96.46
2018-05-21T04:54:23.568Z,96.68
2018-05-21T04:56:52.088Z,97.42
2018-05-21T04:59:20.613Z,95.59
2018-05-21T05:01:50.091Z,94.56
2018-05-21T05:04:18.600Z,93.69
2018-05-21T05:06:47.126Z,93.61
2018-05-21T05:09:15.653Z,94.45
2018-05-21T05:11:44.168Z,96.27
2018-05-21T05:14:12.709Z,95.47
2018-05-21T05:16:42.123Z,95.02
2018-05-21T05:19:11.729Z,93.59
2018-05-21T05:21:40.316Z,92.63
2018-05-21T05:24:09.284Z,92.72
2018-05-21T05:26:37.942Z,93.43
2018-05-21T05:29:06.368Z,93.14
2018-05-21T05:31:34.909Z,91.80
2018-05-21T05:34:03.437Z,90.04
2018-05-21T05:36:31.988Z,90.00
2018-05-21T05:39:00.517Z,90.16
2018-05-21T05:41:29.485Z,90.68
2018-05-21T05:43:58.048Z,89.84
2018-05-21T05:46:26.568Z,88.12
2018-05-21T05:48:55.157Z,88.04
2018-05-21T05:51:24.165Z,87.45
2018-05-21T05:53:52.673Z,86.51
2018-05-21T05:56:22.081Z,85.49
2018-05-21T05:58:50.576Z,85.70
2018-05-21T06:01:19.689Z,85.00
2018-05-21T06:03:48.204Z,85.29
2018-05-21T06:06:17.027Z,85.11
2018-05-21T06:08:45.561Z,83.69
2018-05-21T06:11:14.097Z,83.68
2018-05-21T06:13:42.633Z,81.72
2018-05-21T06:16:11.159Z,82.58
2018-05-21T06:18:39.705Z,81.98
2018-05-21T06:21:08.942Z,81.89
2018-05-21T06:23:37.464Z,81.80
2018-05-21T06:26:06.540Z,81.40
2018-05-21T06:28:35.081Z,82.11
2018-05-21T06:31:04.056Z,80.28
2018-05-21T06:33:32.593Z,80.38
2018-05-21T06:36:01.506Z,78.90
2018-05-21T06:38:30.039Z,79.06
2018-05-21T06:40:58.575Z,77.72
2018-05-21T06:43:27.102Z,78.36
2018-05-21T06:45:55.638Z,77.89
2018-05-21T06:48:24.148Z,77.24
2018-05-21T06:50:52.949Z,77.62
2018-05-21T06:53:21.509Z,77.74
2018-05-21T06:55:50.176Z,76.83
2018-05-21T06:58:18.684Z,75.10
2018-05-21T07:00:47.205Z,75.49
2018-05-21T07:03:15.728Z,74.70
2018-05-21T07:05:45.429Z,74.31
2018-05-21T07:08:13.923Z,73.30
2018-05-21T07:10:43.951Z,74.48
2018-05-21T07:13:12.485Z,74.20
2018-05-21T07:15:41.637Z,75.17
2018-05-21T07:18:10.209Z,71.40
2018-05-21T07:20:39.277Z,72.56
2018-05-21T07:23:07.816Z,72.63
2018-05-21T07:25:36.984Z,72.89
2018-05-21T07:28:05.524Z,71.93
2018-05-21T07:30:34.057Z,73.60
2018-05-21T07:33:02.601Z,71.18
2018-05-21T07:35:31.490Z,73.10
2018-05-21T07:38:00.006Z,72.14
2018-05-21T07:40:28.533Z,70.80
2018-05-21T07:42:57.049Z,70.75
2018-05-21T07:45:25.585Z,71.13
2018-05-21T07:47:54.509Z,69.03
2018-05-21T07:50:23.035Z,68.46
2018-05-21T07:52:51.565Z,68.87
2018-05-21T07:55:20.085Z,66.71
2018-05-21T07:57:48.845Z,65.21
2018-05-21T08:00:17.373Z,66.42
2018-05-21T08:02:46.517Z,67.74
2018-05-21T08:05:15.070Z,67.92
2018-05-21T08:07:44.436Z,64.59
2018-05-21T08:10:12.951Z,62.78
2018-05-21T08:12:42.366Z,65.29
2018-05-21T08:15:10.876Z,65.19
2018-05-21T08:17:40.493Z,64.53
2018-05-21T08:20:09.023Z,64.46
2018-05-21T08:22:37.997Z,62.45
2018-05-21T08:25:06.549Z,64.41
2018-05-21T08:27:35.749Z,62.66
2018-05-21T08:30:04.276Z,62.37
2018-05-21T08:32:33.232Z,63.73
2018-05-21T08:35:01.769Z,64.97
2018-05-21T08:37:30.812Z,60.07
2018-05-21T08:39:59.451Z,64.34
2018-05-21T08:42:28.273Z,61.83
2018-05-21T08:44:57.453Z,55.93
2018-05-21T08:47:26.032Z,60.86
2018-05-21T08:49:55.128Z,59.19
2018-05-21T08:52:23.683Z,61.01
2018-05-21T08:54:52.861Z,58.13
2018-05-21T08:57:22.357Z,60.27
2018-05-21T08:59:51.699Z,56.35
2018-05-21T09:02:20.220Z,55.50
2018-05-21T09:04:48.831Z,56.32
2018-05-21T09:07:17.285Z,57.01
2018-05-21T09:09:46.613Z,64.82
2018-05-21T09:12:15.208Z,57.88
2018-05-21T09:14:44.706Z,55.16
2018-05-21T09:17:13.228Z,53.35
2018-05-21T09:19:42.601Z,46.76
2018-05-21T09:22:11.130Z,48.57
2018-05-21T09:24:40.063Z,45.48
2018-05-21T09:27:08.577Z,40.33
2018-05-21T09:29:38.219Z,40.77
2018-05-21T09:32:06.717Z,37.29
2018-05-21T09:34:36.289Z,39.58
2018-05-21T09:37:04.829Z,35.17
2018-05-21T09:39:34.005Z,37.58
2018-05-21T09:42:02.610Z,38.12
2018-05-21T09:44:31.055Z,38.39
2018-05-21T09:46:59.627Z,34.73
2018-05-21T09:49:28.140Z,37.94
2018-05-21T09:51:57.302Z,32.09
2018-05-21T09:54:25.833Z,34.66
2018-05-21T09:56:54.618Z,33.42
2018-05-21T09:59:23.176Z,35.33
2018-05-21T10:01:51.697Z,33.48
2018-05-21T10:04:20.238Z,30.12
2018-05-21T10:06:48.764Z,32.03
2018-05-21T10:09:17.789Z,28.71
2018-05-21T10:11:46.457Z,33.46
2018-05-21T10:14:15.844Z,28.13
2018-05-21T10:16:44.381Z,28.85
2018-05-21T10:19:13.584Z,31.14
2018-05-21T10:21:42.138Z,30.54
2018-05-21T10:24:12.213Z,25.91
2018-05-21T10:26:40.747Z,24.92
2018-05-21T10:29:09.680Z,29.41
2018-05-21T10:31:38.215Z,26.77
2018-05-21T10:34:06.888Z,28.05
2018-05-21T10:36:35.430Z,26.17
2018-05-21T10:39:03.956Z,25.50
2018-05-21T10:41:32.493Z,28.25
2018-05-21T10:44:01.017Z,25.47
2018-05-21T10:46:30.775Z,23.77
2018-05-21T10:48:59.275Z,26.48
2018-05-21T10:51:28.305Z,24.63
2018-05-21T10:53:56.822Z,24.51
2018-05-21T10:56:25.475Z,25.39
2018-05-21T10:58:53.988Z,25.68
2018-05-21T11:01:22.613Z,24.89
2018-05-21T11:03:51.168Z,27.33
2018-05-21T11:06:20.263Z,24.98
2018-05-21T11:08:48.807Z,24.53
2018-05-21T11:11:18.084Z,24.51
2018-05-21T11:13:46.613Z,24.81
2018-05-21T11:16:15.144Z,25.05
2018-05-21T11:18:43.665Z,24.53
2018-05-21T11:21:12.288Z,25.31
2018-05-21T11:23:41.642Z,24.21
2018-05-21T11:26:10.165Z,24.60
2018-05-21T11:28:39.551Z,24.32
2018-05-21T11:31:08.096Z,21.01
2018-05-21T11:33:36.909Z,20.72
2018-05-21T11:36:05.441Z,21.75
2018-05-21T11:38:34.467Z,21.01
2018-05-21T11:41:02.998Z,21.18
2018-05-21T11:43:31.921Z,21.44
2018-05-21T11:46:00.465Z,20.28
2018-05-21T11:48:28.977Z,20.33
2018-05-21T11:50:57.506Z,21.76
2018-05-21T11:53:26.040Z,20.70
2018-05-21T11:55:54.600Z,22.12
2018-05-21T11:58:23.096Z,20.47
2018-05-21T12:00:51.805Z,20.31
2018-05-21T12:03:20.309Z,20.44
2018-05-21T12:05:49.368Z,20.24
2018-05-21T12:08:17.877Z,21.60
2018-05-21T12:10:46.938Z,20.98
2018-05-21T12:13:15.458Z,20.98
2018-05-21T12:15:44.484Z,21.21
2018-05-21T12:18:13.020Z,21.87
2018-05-21T12:20:41.556Z,20.02
2018-05-21T12:23:10.077Z,19.47
2018-05-21T12:25:38.621Z,20.17
2018-05-21T12:28:07.145Z,20.20
2018-05-21T12:30:35.680Z,19.82
2018-05-21T12:33:06.086Z,19.59
2018-05-21T12:35:34.616Z,20.94
2018-05-21T12:38:03.740Z,21.52
2018-05-21T12:40:32.278Z,19.44
2018-05-21T12:43:00.804Z,20.14
2018-05-21T12:45:29.330Z,20.22
2018-05-21T12:47:58.671Z,20.66
2018-05-21T12:50:27.197Z,21.14
2018-05-21T12:52:55.729Z,19.48
2018-05-21T12:55:24.641Z,21.62
2018-05-21T12:57:53.153Z,23.14
2018-05-21T13:00:22.599Z,22.44
2018-05-21T13:02:51.092Z,20.32
2018-05-21T13:05:20.129Z,19.54
2018-05-21T13:07:48.624Z,18.16
2018-05-21T13:10:17.156Z,18.70
2018-05-21T13:12:45.676Z,18.11
2018-05-21T13:15:14.207Z,20.15
2018-05-21T13:17:42.720Z,19.58
2018-05-21T13:20:11.252Z,19.21
2018-05-21T13:22:39.933Z,19.94
2018-05-21T13:25:08.436Z,20.04
2018-05-21T13:27:37.319Z,19.01
2018-05-21T13:30:05.845Z,19.68
2018-05-21T13:32:34.793Z,19.26
2018-05-21T13:35:03.330Z,20.81
2018-05-21T13:37:31.997Z,19.73
2018-05-21T13:40:00.533Z,18.04
2018-05-21T13:42:29.070Z,19.41
2018-05-21T13:44:57.609Z,19.36
2018-05-21T13:47:26.148Z,18.25
2018-05-21T13:49:54.729Z,18.17
2018-05-21T13:52:23.375Z,19.41
2018-05-21T13:54:55.441Z,17.98
2018-05-21T13:57:26.807Z,18.95
2018-05-21T13:59:55.358Z,19.56
2018-05-21T14:02:24.353Z,19.50
2018-05-21T14:04:52.881Z,20.62
2018-05-21T14:07:21.413Z,18.64
2018-05-21T14:09:49.949Z,17.87
2018-05-21T14:12:18.481Z,18.51
2018-05-21T14:14:47.011Z,18.76
2018-05-21T14:17:15.579Z,19.43
2018-05-21T14:19:45.381Z,20.06
2018-05-21T14:22:13.956Z,21.16
2018-05-21T14:24:42.644Z,19.18
2018-05-21T14:27:11.177Z,18.62
2018-05-21T14:29:39.908Z,17.99
2018-05-21T14:32:08.416Z,17.76
2018-05-21T14:34:37.253Z,17.67
2018-05-21T14:37:05.892Z,20.33
2018-05-21T14:39:34.459Z,19.61
2018-05-21T14:42:02.993Z,18.25
2018-05-21T14:44:31.531Z,18.43
2018-05-21T14:47:00.057Z,19.60
2018-05-21T14:49:28.579Z,18.88
2018-05-21T14:51:57.104Z,17.02
2018-05-21T14:54:25.635Z,17.77
2018-05-21T14:56:54.156Z,18.65
2018-05-21T14:59:22.708Z,18.92
2018-05-21T15:01:51.297Z,18.60
2018-05-21T15:04:19.811Z,17.56
2018-05-21T15:06:49.545Z,18.08
2018-05-21T15:09:18.053Z,17.58
2018-05-21T15:11:47.117Z,19.29
2018-05-21T15:14:15.649Z,21.48
2018-05-21T15:16:44.274Z,20.71
2018-05-21T15:19:12.794Z,18.87
2018-05-21T15:21:41.809Z,18.19
2018-05-21T15:24:10.341Z,18.02
2018-05-21T15:26:39.120Z,22.24
2018-05-21T15:29:07.641Z,24.76
2018-05-21T15:31:36.174Z,30.56
2018-05-21T15:34:04.700Z,31.70
2018-05-21T15:36:33.338Z,31.59
2018-05-21T15:39:01.878Z,42.88
2018-05-21T15:41:30.402Z,47.12
2018-05-21T15:43:58.937Z,51.15
2018-05-21T15:46:28.374Z,48.29
2018-05-21T15:48:56.910Z,50.81
2018-05-21T15:51:25.443Z,53.04
2018-05-21T15:53:54.486Z,55.27
2018-05-21T15:56:23.080Z,56.23
2018-05-21T15:58:52.357Z,54.75
2018-05-21T16:01:20.925Z,57.50
2018-05-21T16:03:49.845Z,55.99
2018-05-21T16:06:18.408Z,52.56
2018-05-21T16:08:47.443Z,50.76
2018-05-21T16:11:16.010Z,45.85
2018-05-21T16:13:45.286Z,41.42
2018-05-21T16:16:13.812Z,49.98
2018-05-21T16:18:42.691Z,54.23
2018-05-21T16:21:11.220Z,61.79
2018-05-21T16:23:40.266Z,66.51
2018-05-21T16:26:08.792Z,73.23
2018-05-21T16:28:37.322Z,75.71
2018-05-21T16:31:05.852Z,79.79
2018-05-21T16:33:34.937Z,78.44
2018-05-21T16:36:03.460Z,80.52
2018-05-21T16:38:32.778Z,82.43
2018-05-21T16:41:01.309Z,84.60
2018-05-21T16:43:30.161Z,84.34
2018-05-21T16:45:58.689Z,83.35
2018-05-21T16:48:27.696Z,86.75
2018-05-21T16:50:56.221Z,86.98
2018-05-21T16:53:25.210Z,74.85
2018-05-21T16:55:53.738Z,75.26
2018-05-21T16:58:22.264Z,79.13
2018-05-21T17:00:50.807Z,82.97
2018-05-21T17:03:19.337Z,81.44
2018-05-21T17:05:47.857Z,84.31
2018-05-21T17:08:16.404Z,83.96
2018-05-21T17:10:45.099Z,87.06
2018-05-21T17:13:13.613Z,88.47
2018-05-21T17:15:42.588Z,86.00
2018-05-21T17:18:11.103Z,82.58
2018-05-21T17:20:40.347Z,79.73
2018-05-21T17:23:08.867Z,72.50
2018-05-21T17:25:37.782Z,76.53
2018-05-21T17:28:06.406Z,76.99
2018-05-21T17:30:34.952Z,76.33
2018-05-21T17:33:03.505Z,79.47
2018-05-21T17:35:32.112Z,81.67
2018-05-21T17:38:00.620Z,84.00
2018-05-21T17:40:29.157Z,83.34
2018-05-21T17:42:58.300Z,82.27
2018-05-21T17:45:26.830Z,85.13
2018-05-21T17:47:55.369Z,92.31
2018-05-21T17:50:24.023Z,94.20
2018-05-21T17:52:52.638Z,94.66
2018-05-21T17:55:21.220Z,91.54
2018-05-21T17:57:49.745Z,86.50
2018-05-21T18:00:18.329Z,92.97
2018-05-21T18:02:47.298Z,92.59
2018-05-21T18:05:15.834Z,89.16
2018-05-21T18:07:44.386Z,90.55
2018-05-21T18:10:13.309Z,89.26
2018-05-21T18:12:41.854Z,90.98
2018-05-21T18:15:10.374Z,91.71
2018-05-21T18:17:39.160Z,90.44
2018-05-21T18:20:07.687Z,92.59
2018-05-21T18:22:36.216Z,90.06
2018-05-21T18:25:05.348Z,89.50
2018-05-21T18:27:33.837Z,93.90
2018-05-21T18:30:02.388Z,92.56
2018-05-21T18:32:31.054Z,92.51
2018-05-21T18:34:59.558Z,97.72
2018-05-21T18:37:28.095Z,96.34
2018-05-21T18:39:56.629Z,97.07
2018-05-21T18:42:25.260Z,94.14
2018-05-21T18:44:53.908Z,98.10
2018-05-21T18:47:22.418Z,99.85
2018-05-21T18:49:50.949Z,98.98
2018-05-21T18:52:19.590Z,96.70
2018-05-21T18:54:48.143Z,98.06
2018-05-21T18:57:16.680Z,98.02
2018-05-21T18:59:45.347Z,95.99
2018-05-21T19:02:13.891Z,96.25
2018-05-21T19:04:42.417Z,98.09
2018-05-21T19:07:11.125Z,100.00
2018-05-21T19:09:39.657Z,98.76
2018-05-21T19:12:08.196Z,96.91
2018-05-21T19:14:36.962Z,99.20
2018-05-21T19:17:05.530Z,100.00
2018-05-21T19:19:34.069Z,99.03
2018-05-21T19:22:02.744Z,97.14
2018-05-21T19:24:31.319Z,95.88
2018-05-21T19:27:00.801Z,95.04
2018-05-21T19:29:29.316Z,95.77
2018-05-21T19:31:58.348Z,95.53
2018-05-21T19:34:26.898Z,99.02
2018-05-21T19:36:55.434Z,99.89
2018-05-21T19:39:24.232Z,100.00
2018-05-21T19:41:52.787Z,100.00
2018-05-21T19:44:21.312Z,100.00
2018-05-21T19:46:49.878Z,100.00
2018-05-21T19:49:18.413Z,100.00
2018-05-21T19:51:46.934Z,98.49
2018-05-21T19:54:15.823Z,100.00
2018-05-21T19:56:44.351Z,100.00
2018-05-21T19:59:12.889Z,100.00
2018-05-21T20:01:41.594Z,100.00
2018-05-21T20:04:10.119Z,100.00
2018-05-21T20:06:38.648Z,100.00
2018-05-21T20:09:07.189Z,100.00
2018-05-21T20:11:35.729Z,100.00
2018-05-21T20:14:04.292Z,100.00
2018-05-21T20:16:32.816Z,100.00
2018-05-21T20:19:01.359Z,100.00
2018-05-21T20:21:29.889Z,100.00
2018-05-21T20:23:58.433Z,100.00
2018-05-21T20:26:27.149Z,100.00
2018-05-21T20:28:55.994Z,100.00
2018-05-21T20:31:24.557Z,100.00
2018-05-21T20:33:53.069Z,100.00
2018-05-21T20:36:21.602Z,100.00
2018-05-21T20:38:50.164Z,100.00
2018-05-21T20:41:18.805Z,100.00
2018-05-21T20:43:47.349Z,100.00
2018-05-21T20:46:15.876Z,100.00
2018-05-21T20:48:44.404Z,100.00
2018-05-21T20:51:12.944Z,100.00
2018-05-21T20:53:41.476Z,100.00
2018-05-21T20:56:10.014Z,100.00
2018-05-21T20:58:38.557Z,100.00
2018-05-21T21:01:07.093Z,100.00
2018-05-21T21:03:35.630Z,100.00
2018-05-21T21:06:05.314Z,100.00
2018-05-21T21:08:33.826Z,100.00
2018-05-21T21:11:02.361Z,100.00
2018-05-21T21:13:31.017Z,100.00
2018-05-21T21:15:59.565Z,100.00
2018-05-21T21:18:28.118Z,100.00
2018-05-21T21:20:56.696Z,100.00
2018-05-21T21:23:25.336Z,100.00
2018-05-21T21:25:53.796Z,100.00
2018-05-21T21:28:22.457Z,100.00
2018-05-21T21:30:51.090Z,100.00
2018-05-21T21:33:19.628Z,100.00
2018-05-21T21:35:48.132Z,100.00
2018-05-21T21:38:16.847Z,100.00
2018-05-21T21:40:45.454Z,100.00
2018-05-21T21:43:13.981Z,100.00
2018-05-21T21:45:42.528Z,100.00
2018-05-21T21:48:11.116Z,100.00
2018-05-21T21:50:39.601Z,100.00
2018-05-21T21:53:08.235Z,100.00
2018-05-21T21:55:43.556Z,100.00
2018-05-21T21:58:12.700Z,100.00
2018-05-21T22:00:41.243Z,100.00
2018-05-21T22:03:09.768Z,100.00
2018-05-21T22:05:38.299Z,100.00
2018-05-21T22:08:06.836Z,100.00
2018-05-21T22:10:35.381Z,100.00
2018-05-21T22:13:03.953Z,100.00
2018-05-21T22:15:32.464Z,100.00
2018-05-21T22:18:01.001Z,100.00
2018-05-21T22:20:29.537Z,100.00
2018-05-21T22:22:58.076Z,100.00
2018-05-21T22:25:26.609Z,100.00
2018-05-21T22:27:55.145Z,100.00
2018-05-21T22:30:23.684Z,100.00
2018-05-21T22:32:52.215Z,100.00
2018-05-21T22:35:20.807Z,100.00
2018-05-21T22:37:49.337Z,100.00
2018-05-21T22:40:17.864Z,100.00
2018-05-21T22:42:47.468Z,100.00
2018-05-21T22:45:16.237Z,100.00
2018-05-21T22:47:44.801Z,100.00
2018-05-21T22:50:13.357Z,100.00
2018-05-21T22:52:42.020Z,100.00
2018-05-21T22:55:15.120Z,100.00
2018-05-21T22:57:43.668Z,100.00
2018-05-21T23:00:13.101Z,100.00
2018-05-21T23:02:41.710Z,100.00
2018-05-21T23:05:10.331Z,100.00
2018-05-21T23:07:38.861Z,100.00
2018-05-21T23:10:07.388Z,100.00
2018-05-21T23:12:35.909Z,100.00
2018-05-21T23:15:04.448Z,100.00
2018-05-21T23:17:33.233Z,100.00
2018-05-21T23:20:01.784Z,100.00
2018-05-21T23:22:51.086Z,100.00
2018-05-21T23:25:19.830Z,100.00
2018-05-21T23:27:48.381Z,100.00
2018-05-21T23:30:16.898Z,100.00
2018-05-21T23:32:45.517Z,100.00
2018-05-21T23:35:13.980Z,100.00
2018-05-21T23:37:42.509Z,100.00
2018-05-21T23:40:11.054Z,100.00
2018-05-21T23:42:39.721Z,100.00
2018-05-21T23:45:08.230Z,100.00
2018-05-21T23:47:36.768Z,100.00
2018-05-21T23:50:05.495Z,100.00
2018-05-21T23:52:34.008Z,100.00
2018-05-21T23:55:02.525Z,100.00
2018-05-21T23:57:31.567Z,100.00
